createdAt,value
2018-02-03T00:00:27.707Z,966.04
2018-02-03T00:01:27.744Z,966.08
2018-02-03T00:02:27.697Z,966.08
2018-02-03T00:03:27.692Z,966.06
2018-02-03T00:04:27.678Z,966.07
2018-02-03T00:05:27.714Z,966.09
2018-02-03T00:06:27.721Z,966.05
2018-02-03T00:07:27.675Z,966.09
2018-02-03T00:08:27.669Z,966.09
2018-02-03T00:09:27.658Z,966.07
2018-02-03T00:10:27.662Z,966.06
2018-02-03T00:11:27.691Z,966.08
2018-02-03T00:12:27.647Z,966.06
2018-02-03T00:13:27.699Z,966.05
2018-02-03T00:14:27.645Z,966.04
2018-02-03T00:15:27.634Z,966.05
2018-02-03T00:16:27.676Z,966.04
2018-02-03T00:17:27.624Z,966.08
2018-02-03T00:18:27.620Z,966.07
2018-02-03T00:19:27.618Z,966.01
2018-02-03T00:20:27.619Z,966.01
2018-02-03T00:21:27.664Z,966.06
2018-02-03T00:22:27.609Z,965.99
2018-02-03T00:23:27.607Z,965.99
2018-02-03T00:24:27.595Z,966.00
2018-02-03T00:25:27.600Z,965.97
2018-02-03T00:26:27.622Z,966.04
2018-02-03T00:27:27.616Z,966.00
2018-02-03T00:28:27.576Z,966.00
2018-02-03T00:29:27.582Z,965.99
2018-02-03T00:30:27.568Z,965.99
2018-02-03T00:31:27.601Z,965.97
2018-02-03T00:32:27.569Z,965.98
2018-02-03T00:33:27.564Z,965.97
2018-02-03T00:34:27.557Z,965.96
2018-02-03T00:35:27.548Z,965.97
2018-02-03T00:36:27.593Z,965.96
2018-02-03T00:37:27.549Z,965.98
2018-02-03T00:38:27.539Z,965.99
2018-02-03T00:39:27.531Z,966.01
2018-02-03T00:40:27.525Z,966.01
2018-02-03T00:41:27.572Z,966.01
2018-02-03T00:42:27.600Z,966.01
2018-02-03T00:43:27.522Z,966.01
2018-02-03T00:44:27.514Z,966.00
2018-02-03T00:45:27.502Z,966.05
2018-02-03T00:46:27.546Z,966.01
2018-02-03T00:47:27.541Z,966.04
2018-02-03T00:48:27.498Z,966.02
2018-02-03T00:49:27.486Z,966.03
2018-02-03T00:50:27.508Z,966.01
2018-02-03T00:51:27.491Z,966.00
2018-02-03T00:52:27.524Z,966.02
2018-02-03T00:53:27.949Z,966.02
2018-02-03T00:54:27.471Z,966.01
2018-02-03T00:55:27.470Z,966.02
2018-02-03T00:56:27.454Z,966.00
2018-02-03T00:57:27.649Z,965.94
2018-02-03T00:58:27.461Z,965.96
2018-02-03T00:59:27.444Z,965.95
2018-02-03T01:00:27.453Z,965.99
2018-02-03T01:01:27.431Z,965.95
2018-02-03T01:02:27.481Z,965.93
2018-02-03T01:03:27.433Z,965.87
2018-02-03T01:04:27.420Z,965.88
2018-02-03T01:05:27.425Z,965.91
2018-02-03T01:06:27.411Z,965.92
2018-02-03T01:07:27.461Z,965.88
2018-02-03T01:08:27.412Z,965.87
2018-02-03T01:09:27.398Z,965.86
2018-02-03T01:10:27.404Z,965.83
2018-02-03T01:11:27.433Z,965.80
2018-02-03T01:12:27.384Z,965.76
2018-02-03T01:13:27.420Z,965.75
2018-02-03T01:14:27.384Z,965.74
2018-02-03T01:15:27.381Z,965.71
2018-02-03T01:16:27.368Z,965.71
2018-02-03T01:17:27.366Z,965.70
2018-02-03T01:18:27.404Z,965.65
2018-02-03T01:19:27.362Z,965.68
2018-02-03T01:20:27.350Z,965.64
2018-02-03T01:21:27.345Z,965.63
2018-02-03T01:22:27.342Z,965.63
2018-02-03T01:23:27.392Z,965.65
2018-02-03T01:24:27.332Z,965.62
2018-02-03T01:25:27.338Z,965.63
2018-02-03T01:26:27.361Z,965.59
2018-02-03T01:27:27.327Z,965.57
2018-02-03T01:28:27.313Z,965.59
2018-02-03T01:29:27.359Z,965.57
2018-02-03T01:30:27.314Z,965.56
2018-02-03T01:31:27.310Z,965.58
2018-02-03T01:32:27.306Z,965.62
2018-02-03T01:33:27.291Z,965.58
2018-02-03T01:34:27.343Z,965.57
2018-02-03T01:35:27.291Z,965.55
2018-02-03T01:36:27.324Z,965.54
2018-02-03T01:37:27.272Z,965.56
2018-02-03T01:38:27.269Z,965.58
2018-02-03T01:39:27.303Z,965.54
2018-02-03T01:40:27.269Z,965.58
2018-02-03T01:41:27.261Z,965.56
2018-02-03T01:42:27.263Z,965.58
2018-02-03T01:43:27.255Z,965.54
2018-02-03T01:44:27.291Z,965.58
2018-02-03T01:45:27.236Z,965.59
2018-02-03T01:46:27.241Z,965.56
2018-02-03T01:47:27.236Z,965.56
2018-02-03T01:48:27.221Z,965.59
2018-02-03T01:49:27.261Z,965.57
2018-02-03T01:50:27.213Z,965.61
2018-02-03T01:51:27.247Z,965.60
2018-02-03T01:52:27.203Z,965.63
2018-02-03T01:53:27.197Z,965.60
2018-02-03T01:54:27.203Z,965.59
2018-02-03T01:55:27.242Z,965.55
2018-02-03T01:56:27.183Z,965.60
2018-02-03T01:57:27.179Z,965.56
2018-02-03T01:58:27.173Z,965.55
2018-02-03T01:59:27.229Z,965.55
2018-02-03T02:00:27.214Z,965.58
2018-02-03T02:01:27.160Z,965.59
2018-02-03T02:02:27.202Z,965.56
2018-02-03T02:03:27.152Z,965.56
2018-02-03T02:04:27.155Z,965.60
2018-02-03T02:05:27.188Z,965.56
2018-02-03T02:06:27.133Z,965.56
2018-02-03T02:07:27.139Z,965.59
2018-02-03T02:08:27.127Z,965.59
2018-02-03T02:09:27.122Z,965.59
2018-02-03T02:10:27.168Z,965.60
2018-02-03T02:11:27.287Z,965.57
2018-02-03T02:12:27.120Z,965.60
2018-02-03T02:13:27.101Z,965.59
2018-02-03T02:14:27.143Z,965.60
2018-02-03T02:15:27.100Z,965.58
2018-02-03T02:16:27.093Z,965.63
2018-02-03T02:17:27.081Z,965.64
2018-02-03T02:18:27.077Z,965.58
2018-02-03T02:19:27.118Z,965.61
2018-02-03T02:20:27.075Z,965.63
2018-02-03T02:21:27.063Z,965.61
2018-02-03T02:22:27.577Z,965.59
2018-02-03T02:23:27.051Z,965.61
2018-02-03T02:24:27.086Z,965.57
2018-02-03T02:25:27.079Z,965.57
2018-02-03T02:26:27.037Z,965.57
2018-02-03T02:27:27.034Z,965.58
2018-02-03T02:28:27.041Z,965.60
2018-02-03T02:29:27.023Z,965.62
2018-02-03T02:30:27.063Z,965.58
2018-02-03T02:31:27.016Z,965.55
2018-02-03T02:32:27.047Z,965.55
2018-02-03T02:33:27.014Z,965.56
2018-02-03T02:34:27.008Z,965.59
2018-02-03T02:35:27.430Z,965.56
2018-02-03T02:36:26.991Z,965.54
2018-02-03T02:37:26.993Z,965.53
2018-02-03T02:38:26.981Z,965.53
2018-02-03T02:39:26.982Z,965.53
2018-02-03T02:40:27.025Z,965.50
2018-02-03T02:41:26.976Z,965.56
2018-02-03T02:42:27.007Z,965.55
2018-02-03T02:43:26.956Z,965.52
2018-02-03T02:44:27.146Z,965.57
2018-02-03T02:45:26.957Z,965.60
2018-02-03T02:46:26.980Z,965.55
2018-02-03T02:47:26.948Z,965.57
2018-02-03T02:48:26.943Z,965.60
2018-02-03T02:49:26.937Z,965.60
2018-02-03T02:50:26.926Z,965.57
2018-02-03T02:51:26.960Z,965.60
2018-02-03T02:52:26.916Z,965.59
2018-02-03T02:53:26.909Z,965.60
2018-02-03T02:54:26.913Z,965.57
2018-02-03T02:55:26.901Z,965.60
2018-02-03T02:56:26.937Z,965.57
2018-02-03T02:57:27.022Z,965.61
2018-02-03T02:58:26.894Z,965.58
2018-02-03T02:59:26.880Z,965.58
2018-02-03T03:00:26.873Z,965.53
2018-02-03T03:01:26.913Z,965.58
2018-02-03T03:02:26.866Z,965.58
2018-02-03T03:03:26.873Z,965.56
2018-02-03T03:04:26.855Z,965.53
2018-02-03T03:05:26.863Z,965.52
2018-02-03T03:06:26.892Z,965.56
2018-02-03T03:07:26.841Z,965.54
2018-02-03T03:08:26.838Z,965.54
2018-02-03T03:09:26.833Z,965.53
2018-02-03T03:10:26.837Z,965.55
2018-02-03T03:11:26.886Z,965.57
2018-02-03T03:12:26.825Z,965.57
2018-02-03T03:13:26.868Z,965.61
2018-02-03T03:14:26.808Z,965.58
2018-02-03T03:15:26.807Z,965.60
2018-02-03T03:16:26.809Z,965.57
2018-02-03T03:17:27.468Z,965.57
2018-02-03T03:18:26.839Z,965.60
2018-02-03T03:19:26.796Z,965.60
2018-02-03T03:20:26.789Z,965.59
2018-02-03T03:21:26.788Z,965.63
2018-02-03T03:22:26.812Z,965.60
2018-02-03T03:23:26.779Z,965.62
2018-02-03T03:24:26.764Z,965.60
2018-02-03T03:25:26.769Z,965.62
2018-02-03T03:26:26.765Z,965.59
2018-02-03T03:27:26.796Z,965.58
2018-02-03T03:28:26.759Z,965.60
2018-02-03T03:29:26.755Z,965.55
2018-02-03T03:30:26.750Z,965.54
2018-02-03T03:31:26.740Z,965.54
2018-02-03T03:32:26.765Z,965.51
2018-02-03T03:33:26.725Z,965.49
2018-02-03T03:34:26.715Z,965.51
2018-02-03T03:35:26.713Z,965.51
2018-02-03T03:36:26.712Z,965.55
2018-02-03T03:37:26.744Z,965.54
2018-02-03T03:38:26.709Z,965.51
2018-02-03T03:39:26.694Z,965.51
2018-02-03T03:40:26.700Z,965.49
2018-02-03T03:41:26.686Z,965.53
2018-02-03T03:42:26.729Z,965.53
2018-02-03T03:43:26.685Z,965.51
2018-02-03T03:44:26.739Z,965.49
2018-02-03T03:45:26.669Z,965.50
2018-02-03T03:46:26.673Z,965.48
2018-02-03T03:47:26.704Z,965.49
2018-02-03T03:48:26.665Z,965.50
2018-02-03T03:49:26.650Z,965.45
2018-02-03T03:50:26.646Z,965.43
2018-02-03T03:51:26.696Z,965.45
2018-02-03T03:52:26.636Z,965.45
2018-02-03T03:53:26.680Z,965.45
2018-02-03T03:54:27.359Z,965.43
2018-02-03T03:55:26.644Z,965.40
2018-02-03T03:56:26.639Z,965.41
2018-02-03T03:57:26.682Z,965.43
2018-02-03T03:58:26.665Z,965.43
2018-02-03T03:59:26.625Z,965.44
2018-02-03T04:00:26.619Z,965.43
2018-02-03T04:01:26.616Z,965.45
2018-02-03T04:02:26.613Z,965.46
2018-02-03T04:03:26.646Z,965.46
2018-02-03T04:04:26.600Z,965.46
2018-02-03T04:05:26.597Z,965.42
2018-02-03T04:06:26.593Z,965.44
2018-02-03T04:07:26.588Z,965.43
2018-02-03T04:08:26.630Z,965.40
2018-02-03T04:09:26.580Z,965.42
2018-02-03T04:10:26.574Z,965.41
2018-02-03T04:11:26.570Z,965.41
2018-02-03T04:12:26.623Z,965.43
2018-02-03T04:13:26.564Z,965.40
2018-02-03T04:14:26.558Z,965.43
2018-02-03T04:15:26.556Z,965.42
2018-02-03T04:16:26.548Z,965.41
2018-02-03T04:17:26.544Z,965.45
2018-02-03T04:18:26.575Z,965.41
2018-02-03T04:19:26.583Z,965.43
2018-02-03T04:20:26.531Z,965.46
2018-02-03T04:21:26.526Z,965.45
2018-02-03T04:22:26.562Z,965.47
2018-02-03T04:23:26.516Z,965.47
2018-02-03T04:24:26.548Z,965.51
2018-02-03T04:25:26.508Z,965.54
2018-02-03T04:26:26.502Z,965.56
2018-02-03T04:27:26.498Z,965.55
2018-02-03T04:28:26.494Z,965.54
2018-02-03T04:29:26.535Z,965.55
2018-02-03T04:30:26.484Z,965.55
2018-02-03T04:31:26.483Z,965.53
2018-02-03T04:32:26.475Z,965.54
2018-02-03T04:33:26.471Z,965.57
2018-02-03T04:34:26.507Z,965.54
2018-02-03T04:35:26.462Z,965.55
2018-02-03T04:36:26.459Z,965.56
2018-02-03T04:37:26.455Z,965.58
2018-02-03T04:38:26.450Z,965.54
2018-02-03T04:39:26.480Z,965.55
2018-02-03T04:40:26.439Z,965.53
2018-02-03T04:41:26.433Z,965.55
2018-02-03T04:42:26.429Z,965.60
2018-02-03T04:43:26.469Z,965.54
2018-02-03T04:44:26.424Z,965.54
2018-02-03T04:45:26.416Z,965.57
2018-02-03T04:46:26.411Z,965.53
2018-02-03T04:47:26.445Z,965.52
2018-02-03T04:48:26.403Z,965.51
2018-02-03T04:49:26.434Z,965.50
2018-02-03T04:50:26.394Z,965.51
2018-02-03T04:51:26.387Z,965.50
2018-02-03T04:52:26.382Z,965.50
2018-02-03T04:53:26.423Z,965.58
2018-02-03T04:54:26.372Z,965.58
2018-02-03T04:55:26.369Z,965.57
2018-02-03T04:56:26.364Z,965.58
2018-02-03T04:57:26.619Z,965.57
2018-02-03T04:58:26.396Z,965.56
2018-02-03T04:59:26.349Z,965.60
2018-02-03T05:00:26.347Z,965.56
2018-02-03T05:01:26.344Z,965.58
2018-02-03T05:02:26.334Z,965.57
2018-02-03T05:03:26.374Z,965.58
2018-02-03T05:04:26.325Z,965.55
2018-02-03T05:05:26.322Z,965.56
2018-02-03T05:06:26.320Z,965.56
2018-02-03T05:07:26.313Z,965.54
2018-02-03T05:08:26.346Z,965.54
2018-02-03T05:09:26.304Z,965.60
2018-02-03T05:10:26.298Z,965.57
2018-02-03T05:11:26.295Z,965.57
2018-02-03T05:12:26.290Z,965.54
2018-02-03T05:13:26.537Z,965.59
2018-02-03T05:14:26.280Z,965.57
2018-02-03T05:15:26.276Z,965.57
2018-02-03T05:16:26.273Z,965.56
2018-02-03T05:17:26.312Z,965.58
2018-02-03T05:18:26.262Z,965.60
2018-02-03T05:19:26.257Z,965.60
2018-02-03T05:20:26.252Z,965.61
2018-02-03T05:21:26.294Z,965.60
2018-02-03T05:22:26.242Z,965.65
2018-02-03T05:23:26.238Z,965.65
2018-02-03T05:24:26.233Z,965.65
2018-02-03T05:25:26.228Z,965.66
2018-02-03T05:26:26.267Z,965.68
2018-02-03T05:27:26.221Z,965.72
2018-02-03T05:28:26.214Z,965.73
2018-02-03T05:29:26.209Z,965.71
2018-02-03T05:30:26.250Z,965.77
2018-02-03T05:31:26.201Z,965.75
2018-02-03T05:32:26.196Z,965.68
2018-02-03T05:33:26.190Z,965.74
2018-02-03T05:34:26.189Z,965.71
2018-02-03T05:35:26.227Z,965.73
2018-02-03T05:36:26.213Z,965.70
2018-02-03T05:37:26.173Z,965.74
2018-02-03T05:38:26.225Z,965.77
2018-02-03T05:39:26.162Z,965.76
2018-02-03T05:40:26.159Z,965.77
2018-02-03T05:41:26.195Z,965.76
2018-02-03T05:42:26.147Z,965.74
2018-02-03T05:43:26.143Z,965.73
2018-02-03T05:44:26.134Z,965.71
2018-02-03T05:45:26.134Z,965.73
2018-02-03T05:46:26.170Z,965.74
2018-02-03T05:47:26.121Z,965.73
2018-02-03T05:48:26.116Z,965.70
2018-02-03T05:49:26.113Z,965.70
2018-02-03T05:50:26.106Z,965.74
2018-02-03T05:51:26.146Z,965.72
2018-02-03T05:52:26.098Z,965.76
2018-02-03T05:53:26.093Z,965.74
2018-02-03T05:54:26.086Z,965.73
2018-02-03T05:55:26.117Z,965.72
2018-02-03T05:56:26.075Z,965.72
2018-02-03T05:57:26.526Z,965.69
2018-02-03T05:58:26.065Z,965.68
2018-02-03T05:59:26.061Z,965.71
2018-02-03T06:00:26.053Z,965.71
2018-02-03T06:01:26.095Z,965.76
2018-02-03T06:02:26.608Z,965.77
2018-02-03T06:03:26.038Z,965.74
2018-02-03T06:04:26.035Z,965.77
2018-02-03T06:05:26.067Z,965.76
2018-02-03T06:06:26.063Z,965.78
2018-02-03T06:07:26.021Z,965.76
2018-02-03T06:08:26.013Z,965.72
2018-02-03T06:09:26.006Z,965.78
2018-02-03T06:10:26.392Z,965.75
2018-02-03T06:11:26.040Z,965.69
2018-02-03T06:12:25.991Z,965.75
2018-02-03T06:13:25.985Z,965.76
2018-02-03T06:14:25.980Z,965.75
2018-02-03T06:15:26.017Z,965.76
2018-02-03T06:16:26.023Z,965.81
2018-02-03T06:17:25.966Z,965.79
2018-02-03T06:18:25.965Z,965.80
2018-02-03T06:19:25.955Z,965.86
2018-02-03T06:20:25.950Z,965.84
2018-02-03T06:21:25.988Z,965.85
2018-02-03T06:22:25.939Z,965.86
2018-02-03T06:23:25.933Z,965.88
2018-02-03T06:24:25.930Z,965.87
2018-02-03T06:25:25.957Z,965.88
2018-02-03T06:26:25.915Z,965.86
2018-02-03T06:27:25.962Z,965.86
2018-02-03T06:28:25.909Z,965.84
2018-02-03T06:29:25.901Z,965.85
2018-02-03T06:30:25.941Z,965.85
2018-02-03T06:31:25.891Z,965.84
2018-02-03T06:32:25.922Z,965.79
2018-02-03T06:33:25.880Z,965.81
2018-02-03T06:34:26.006Z,965.79
2018-02-03T06:35:25.868Z,965.81
2018-02-03T06:36:25.864Z,965.84
2018-02-03T06:37:25.958Z,965.82
2018-02-03T06:38:25.853Z,965.81
2018-02-03T06:39:25.870Z,965.84
2018-02-03T06:40:25.841Z,965.84
2018-02-03T06:41:25.839Z,965.86
2018-02-03T06:42:25.872Z,965.86
2018-02-03T06:43:25.828Z,965.87
2018-02-03T06:44:26.016Z,965.84
2018-02-03T06:45:25.818Z,965.88
2018-02-03T06:46:25.812Z,965.89
2018-02-03T06:47:25.898Z,965.89
2018-02-03T06:48:25.811Z,965.90
2018-02-03T06:49:25.853Z,965.87
2018-02-03T06:50:25.830Z,965.91
2018-02-03T06:51:25.784Z,965.92
2018-02-03T06:52:25.780Z,965.89
2018-02-03T06:53:25.836Z,965.94
2018-02-03T06:54:25.770Z,965.92
2018-02-03T06:55:25.763Z,965.93
2018-02-03T06:56:25.760Z,965.95
2018-02-03T06:57:25.753Z,965.92
2018-02-03T06:58:25.793Z,965.93
2018-02-03T06:59:25.742Z,965.98
2018-02-03T07:00:25.782Z,965.94
2018-02-03T07:01:25.732Z,966.01
2018-02-03T07:02:25.727Z,965.99
2018-02-03T07:03:25.765Z,966.00
2018-02-03T07:04:25.715Z,965.98
2018-02-03T07:05:25.750Z,966.02
2018-02-03T07:06:25.705Z,966.04
2018-02-03T07:07:25.700Z,966.05
2018-02-03T07:08:25.741Z,966.06
2018-02-03T07:09:25.693Z,966.06
2018-02-03T07:10:25.727Z,966.06
2018-02-03T07:11:25.679Z,966.10
2018-02-03T07:12:25.674Z,966.09
2018-02-03T07:13:25.716Z,966.12
2018-02-03T07:14:25.667Z,966.08
2018-02-03T07:15:25.659Z,966.10
2018-02-03T07:16:25.656Z,966.11
2018-02-03T07:17:25.704Z,966.11
2018-02-03T07:18:25.691Z,966.10
2018-02-03T07:19:25.638Z,966.13
2018-02-03T07:20:25.670Z,966.10
2018-02-03T07:21:25.628Z,966.13
2018-02-03T07:22:25.621Z,966.09
2018-02-03T07:23:25.619Z,966.12
2018-02-03T07:24:25.657Z,966.13
2018-02-03T07:25:25.608Z,966.09
2018-02-03T07:26:25.604Z,966.13
2018-02-03T07:27:25.600Z,966.08
2018-02-03T07:28:25.596Z,966.11
2018-02-03T07:29:25.633Z,966.11
2018-02-03T07:30:25.581Z,966.10
2018-02-03T07:31:25.581Z,966.07
2018-02-03T07:32:25.572Z,966.08
2018-02-03T07:33:25.565Z,966.06
2018-02-03T07:34:25.604Z,966.09
2018-02-03T07:35:25.558Z,966.07
2018-02-03T07:36:25.560Z,966.07
2018-02-03T07:37:25.547Z,966.11
2018-02-03T07:38:25.542Z,966.09
2018-02-03T07:39:25.575Z,966.10
2018-02-03T07:40:25.531Z,966.10
2018-02-03T07:41:25.531Z,966.13
2018-02-03T07:42:25.520Z,966.14
2018-02-03T07:43:25.516Z,966.12
2018-02-03T07:44:25.565Z,966.12
2018-02-03T07:45:25.507Z,966.10
2018-02-03T07:46:25.500Z,966.09
2018-02-03T07:47:25.497Z,966.11
2018-02-03T07:48:25.494Z,966.08
2018-02-03T07:49:25.592Z,966.11
2018-02-03T07:50:25.483Z,966.09
2018-02-03T07:51:25.477Z,966.07
2018-02-03T07:52:25.483Z,966.10
2018-02-03T07:53:25.467Z,966.10
2018-02-03T07:54:25.463Z,966.11
2018-02-03T07:55:25.499Z,966.11
2018-02-03T07:56:25.799Z,966.11
2018-02-03T07:57:25.445Z,966.10
2018-02-03T07:58:25.441Z,966.12
2018-02-03T07:59:25.500Z,966.11
2018-02-03T08:00:25.479Z,966.08
2018-02-03T08:01:25.427Z,966.10
2018-02-03T08:02:25.422Z,966.04
2018-02-03T08:03:25.417Z,966.03
2018-02-03T08:04:25.426Z,966.04
2018-02-03T08:05:25.451Z,966.01
2018-02-03T08:06:25.401Z,966.04
2018-02-03T08:07:25.405Z,966.04
2018-02-03T08:08:25.393Z,966.03
2018-02-03T08:09:25.388Z,966.04
2018-02-03T08:10:25.424Z,966.06
2018-02-03T08:11:25.383Z,966.07
2018-02-03T08:12:25.374Z,966.08
2018-02-03T08:13:25.373Z,966.09
2018-02-03T08:14:25.364Z,966.06
2018-02-03T08:15:25.403Z,966.07
2018-02-03T08:16:25.358Z,966.08
2018-02-03T08:17:26.015Z,966.05
2018-02-03T08:18:25.345Z,966.08
2018-02-03T08:19:25.378Z,966.07
2018-02-03T08:20:25.336Z,966.10
2018-02-03T08:21:25.367Z,966.05
2018-02-03T08:22:25.325Z,966.06
2018-02-03T08:23:25.365Z,966.09
2018-02-03T08:24:25.316Z,966.07
2018-02-03T08:25:25.358Z,966.02
2018-02-03T08:26:25.305Z,966.04
2018-02-03T08:27:25.304Z,966.03
2018-02-03T08:28:25.297Z,966.03
2018-02-03T08:29:25.337Z,965.93
2018-02-03T08:30:25.286Z,965.97
2018-02-03T08:31:25.284Z,965.97
2018-02-03T08:32:25.279Z,965.96
2018-02-03T08:33:25.274Z,965.91
2018-02-03T08:34:25.309Z,965.96
2018-02-03T08:35:25.263Z,965.97
2018-02-03T08:36:25.302Z,965.98
2018-02-03T08:37:25.253Z,965.97
2018-02-03T08:38:25.305Z,965.97
2018-02-03T08:39:25.288Z,965.98
2018-02-03T08:40:25.241Z,965.96
2018-02-03T08:41:25.236Z,965.99
2018-02-03T08:42:25.268Z,965.98
2018-02-03T08:43:25.227Z,965.96
2018-02-03T08:44:25.226Z,965.98
2018-02-03T08:45:25.221Z,965.92
2018-02-03T08:46:25.215Z,965.88
2018-02-03T08:47:25.256Z,965.89
2018-02-03T08:48:25.249Z,965.89
2018-02-03T08:49:25.203Z,965.91
2018-02-03T08:50:25.198Z,965.87
2018-02-03T08:51:25.195Z,965.89
2018-02-03T08:52:25.231Z,965.90
2018-02-03T08:53:25.186Z,965.90
2018-02-03T08:54:25.197Z,965.93
2018-02-03T08:55:25.179Z,965.91
2018-02-03T08:56:25.176Z,965.93
2018-02-03T08:57:25.217Z,965.99
2018-02-03T08:58:25.167Z,966.01
2018-02-03T08:59:25.203Z,966.04
2018-02-03T09:00:25.159Z,966.01
2018-02-03T09:01:25.154Z,966.01
2018-02-03T09:02:25.152Z,965.98
2018-02-03T09:03:25.194Z,965.97
2018-02-03T09:04:25.183Z,965.97
2018-02-03T09:05:25.139Z,965.96
2018-02-03T09:06:25.136Z,965.93
2018-02-03T09:07:25.130Z,965.93
2018-02-03T09:08:25.171Z,965.90
2018-02-03T09:09:25.125Z,965.91
2018-02-03T09:10:25.120Z,965.92
2018-02-03T09:11:25.120Z,965.88
2018-02-03T09:12:25.118Z,965.95
2018-02-03T09:13:25.155Z,965.97
2018-02-03T09:14:25.106Z,965.92
2018-02-03T09:15:25.103Z,965.94
2018-02-03T09:16:25.101Z,965.93
2018-02-03T09:17:25.099Z,965.96
2018-02-03T09:18:25.133Z,965.95
2018-02-03T09:19:25.095Z,966.04
2018-02-03T09:20:25.089Z,965.86
2018-02-03T09:21:25.084Z,965.90
2018-02-03T09:22:25.083Z,965.88
2018-02-03T09:23:25.124Z,965.84
2018-02-03T09:24:25.077Z,965.88
2018-02-03T09:25:25.074Z,965.83
2018-02-03T09:26:25.106Z,965.86
2018-02-03T09:27:25.070Z,965.85
2018-02-03T09:28:25.113Z,965.80
2018-02-03T09:29:25.064Z,965.82
2018-02-03T09:30:25.063Z,965.82
2018-02-03T09:31:25.058Z,965.84
2018-02-03T09:32:25.097Z,965.86
2018-02-03T09:33:25.093Z,965.86
2018-02-03T09:34:25.053Z,965.84
2018-02-03T09:35:25.048Z,965.82
2018-02-03T09:36:25.046Z,965.84
2018-02-03T09:37:25.045Z,965.82
2018-02-03T09:38:25.077Z,965.82
2018-02-03T09:39:25.039Z,965.83
2018-02-03T09:40:25.038Z,965.88
2018-02-03T09:41:25.033Z,965.83
2018-02-03T09:42:25.075Z,965.81
2018-02-03T09:43:25.027Z,965.85
2018-02-03T09:44:25.025Z,965.77
2018-02-03T09:45:25.022Z,965.77
2018-02-03T09:46:25.019Z,965.81
2018-02-03T09:47:25.061Z,965.82
2018-02-03T09:48:25.058Z,965.85
2018-02-03T09:49:25.019Z,965.88
2018-02-03T09:50:25.007Z,965.86
2018-02-03T09:51:25.008Z,965.88
2018-02-03T09:52:25.000Z,965.89
2018-02-03T09:53:25.043Z,965.88
2018-02-03T09:54:24.992Z,965.93
2018-02-03T09:55:24.990Z,965.91
2018-02-03T09:56:25.015Z,965.93
2018-02-03T09:57:25.025Z,965.94
2018-02-03T09:58:24.981Z,965.98
2018-02-03T09:59:24.978Z,965.95
2018-02-03T10:00:24.976Z,965.95
2018-02-03T10:01:24.974Z,965.94
2018-02-03T10:02:25.002Z,965.99
2018-02-03T10:03:24.979Z,965.99
2018-02-03T10:04:24.960Z,965.96
2018-02-03T10:05:24.955Z,965.95
2018-02-03T10:06:24.951Z,965.97
2018-02-03T10:07:24.991Z,965.98
2018-02-03T10:08:24.942Z,965.93
2018-02-03T10:09:24.979Z,965.98
2018-02-03T10:10:24.941Z,965.94
2018-02-03T10:11:24.934Z,965.96
2018-02-03T10:12:24.968Z,965.92
2018-02-03T10:13:24.926Z,965.97
2018-02-03T10:14:24.919Z,965.93
2018-02-03T10:15:24.917Z,965.95
2018-02-03T10:16:24.911Z,965.93
2018-02-03T10:17:24.946Z,965.96
2018-02-03T10:18:25.324Z,965.96
2018-02-03T10:19:24.897Z,965.95
2018-02-03T10:20:24.894Z,965.94
2018-02-03T10:21:24.895Z,965.95
2018-02-03T10:22:24.922Z,965.95
2018-02-03T10:23:24.883Z,966.00
2018-02-03T10:24:24.883Z,965.95
2018-02-03T10:25:24.875Z,965.92
2018-02-03T10:26:24.869Z,965.90
2018-02-03T10:27:24.902Z,965.90
2018-02-03T10:28:24.863Z,965.86
2018-02-03T10:29:24.857Z,965.83
2018-02-03T10:30:24.853Z,965.78
2018-02-03T10:31:24.847Z,965.82
2018-02-03T10:32:24.888Z,965.79
2018-02-03T10:33:24.840Z,965.78
2018-02-03T10:34:24.838Z,965.81
2018-02-03T10:35:24.833Z,965.78
2018-02-03T10:36:24.828Z,965.74
2018-02-03T10:37:24.868Z,965.71
2018-02-03T10:38:24.820Z,965.72
2018-02-03T10:39:24.825Z,965.70
2018-02-03T10:40:24.810Z,965.69
2018-02-03T10:41:24.827Z,965.70
2018-02-03T10:42:24.839Z,965.68
2018-02-03T10:43:24.913Z,965.70
2018-02-03T10:44:24.794Z,965.67
2018-02-03T10:45:25.780Z,965.66
2018-02-03T10:46:24.785Z,965.67
2018-02-03T10:47:24.865Z,965.68
2018-02-03T10:48:24.775Z,965.72
2018-02-03T10:49:24.837Z,965.66
2018-02-03T10:50:24.768Z,965.69
2018-02-03T10:51:24.785Z,965.66
2018-02-03T10:52:24.853Z,965.66
2018-02-03T10:53:24.817Z,965.62
2018-02-03T10:54:24.816Z,965.58
2018-02-03T10:55:24.928Z,965.61
2018-02-03T10:56:24.743Z,965.56
2018-02-03T10:57:24.786Z,965.62
2018-02-03T10:58:24.735Z,965.61
2018-02-03T10:59:24.728Z,965.57
2018-02-03T11:00:24.724Z,965.60
2018-02-03T11:01:24.763Z,965.55
2018-02-03T11:02:24.714Z,965.57
2018-02-03T11:03:24.709Z,965.60
2018-02-03T11:04:24.705Z,965.58
2018-02-03T11:05:24.700Z,965.60
2018-02-03T11:06:24.741Z,965.57
2018-02-03T11:07:25.099Z,965.60
2018-02-03T11:08:24.737Z,965.57
2018-02-03T11:09:24.683Z,965.59
2018-02-03T11:10:24.678Z,965.54
2018-02-03T11:11:24.713Z,965.54
2018-02-03T11:12:25.053Z,965.52
2018-02-03T11:13:24.711Z,965.47
2018-02-03T11:14:24.718Z,965.49
2018-02-03T11:15:24.655Z,965.50
2018-02-03T11:16:24.692Z,965.46
2018-02-03T11:17:24.648Z,965.48
2018-02-03T11:18:24.642Z,965.46
2018-02-03T11:19:24.680Z,965.45
2018-02-03T11:20:24.633Z,965.44
2018-02-03T11:21:24.636Z,965.43
2018-02-03T11:22:24.626Z,965.49
2018-02-03T11:23:24.725Z,965.47
2018-02-03T11:24:25.885Z,965.49
2018-02-03T11:25:25.530Z,965.48
2018-02-03T11:26:25.337Z,965.47
2018-02-03T11:27:24.610Z,965.49
2018-02-03T11:28:27.241Z,965.53
2018-02-03T11:29:24.597Z,965.53
2018-02-03T11:30:24.592Z,965.48
2018-02-03T11:31:24.609Z,965.47
2018-02-03T11:32:24.629Z,965.46
2018-02-03T11:33:24.614Z,965.50
2018-02-03T11:34:24.575Z,965.52
2018-02-03T11:35:24.578Z,965.47
2018-02-03T11:36:24.576Z,965.50
2018-02-03T11:37:24.606Z,965.49
2018-02-03T11:38:24.571Z,965.47
2018-02-03T11:39:24.600Z,965.49
2018-02-03T11:40:24.559Z,965.49
2018-02-03T11:41:24.551Z,965.48
2018-02-03T11:42:24.547Z,965.47
2018-02-03T11:43:24.612Z,965.46
2018-02-03T11:44:24.579Z,965.41
2018-02-03T11:45:24.570Z,965.44
2018-02-03T11:46:24.672Z,965.42
2018-02-03T11:47:24.588Z,965.44
2018-02-03T11:48:24.597Z,965.41
2018-02-03T11:49:24.597Z,965.47
2018-02-03T11:50:24.530Z,965.49
2018-02-03T11:51:24.519Z,965.41
2018-02-03T11:52:24.552Z,965.45
2018-02-03T11:53:24.513Z,965.45
2018-02-03T11:54:24.547Z,965.39
2018-02-03T11:55:25.353Z,965.44
2018-02-03T11:56:24.504Z,965.43
2018-02-03T11:57:24.500Z,965.45
2018-02-03T11:58:24.498Z,965.49
2018-02-03T11:59:24.540Z,965.48
2018-02-03T12:00:26.236Z,965.47
2018-02-03T12:01:26.236Z,965.53
2018-02-03T12:02:27.793Z,965.51
2018-02-03T12:03:25.553Z,965.49
2018-02-03T12:05:24.494Z,965.49
2018-02-03T12:06:24.481Z,965.48
2018-02-03T12:07:27.240Z,965.49
2018-02-03T12:08:25.460Z,965.44
2018-02-03T12:09:24.846Z,965.42
2018-02-03T12:10:25.882Z,965.40
2018-02-03T12:11:25.358Z,965.40
2018-02-03T12:12:27.260Z,965.46
2018-02-03T12:13:26.238Z,965.49
2018-02-03T12:14:26.891Z,965.69
2018-02-03T12:15:24.509Z,965.44
2018-02-03T12:16:24.460Z,965.44
2018-02-03T12:17:24.488Z,965.33
2018-02-03T12:18:24.447Z,965.28
2018-02-03T12:19:24.535Z,965.27
2018-02-03T12:20:24.453Z,965.26
2018-02-03T12:21:25.379Z,965.26
2018-02-03T12:22:24.452Z,965.29
2018-02-03T12:23:24.448Z,965.29
2018-02-03T12:24:24.442Z,965.24
2018-02-03T12:25:24.443Z,965.28
2018-02-03T12:26:24.486Z,965.25
2018-02-03T12:27:24.680Z,965.27
2018-02-03T12:28:24.440Z,965.24
2018-02-03T12:29:24.616Z,965.29